Time;durP1;ratioP1;P1;durP2;ratioP2;P2;SDS_P1;SDS_P2;PMS_P1;PMS_P2;Temp;Humidity;BMP_temperature;BMP_pressure;BME280_temperature;BME280_humidity;BME280_pressure;Samples;Min_cycle;Max_cycle;Signal;HPM_P1;HPM_P2
2021/12/06 00:02:10;;;;;;;8.93;7.40;;;;;;;2.95;83.37;98437.97;4924325;23;20273;-82
2021/12/06 00:05:06;;;;;;;8.80;7.90;;;;;;;3.02;84.16;98454.69;4913982;23;20239;31
2021/12/06 00:08:38;;;;;;;9.17;8.20;;;;;;;2.99;83.34;98457.72;4869372;29;20264;-82
2021/12/06 00:11:27;;;;;;;9.47;7.77;;;;;;;3.03;84.24;98461.63;4933912;23;20244;-83
2021/12/06 00:13:57;;;;;;;8.43;7.63;;;;;;;3.03;83.53;98459.78;5025705;23;20238;-83
2021/12/06 00:17:00;;;;;;;8.43;7.40;;;;;;;3.02;84.21;98466.09;4927223;23;20211;-83
2021/12/06 00:19:47;;;;;;;8.83;7.57;;;;;;;3.02;84.32;98473.22;4902646;29;20200;-82
2021/12/06 00:22:23;;;;;;;7.77;7.07;;;;;;;2.95;84.20;98457.31;4915745;23;20285;-83
2021/12/06 00:25:35;;;;;;;8.37;7.40;;;;;;;2.96;83.98;98461.59;4974896;23;20258;-82
2021/12/06 00:28:21;;;;;;;8.67;7.73;;;;;;;2.87;84.01;98460.16;4929837;23;20231;-84
2021/12/06 00:30:58;;;;;;;8.63;7.63;;;;;;;2.91;84.49;98469.31;4915003;23;20230;-82
2021/12/06 00:33:58;;;;;;;9.30;7.37;;;;;;;2.93;84.95;98467.28;4955659;23;20230;-82
2021/12/06 00:37:05;;;;;;;8.70;7.80;;;;;;;2.89;84.40;98463.38;4937134;29;20270;-82
2021/12/06 00:39:39;;;;;;;8.77;7.50;;;;;;;2.96;84.42;98461.59;4929995;23;20226;-82
2021/12/06 00:42:33;;;;;;;9.03;7.23;;;;;;;2.82;85.16;98467.84;4900080;29;20219;-82
2021/12/06 00:45:19;;;;;;;10.03;7.60;;;;;;;2.92;84.89;98484.19;4889692;29;20222;-83
2021/12/06 00:48:34;;;;;;;8.23;6.90;;;;;;;2.84;85.25;98492.28;4921648;23;20238;-84
2021/12/06 00:51:23;;;;;;;7.90;7.03;;;;;;;2.84;85.63;98489.66;4927550;23;20218;-82
2021/12/06 00:53:52;;;;;;;8.33;7.17;;;;;;;2.83;85.19;98481.91;4935185;23;20239;-83
2021/12/06 00:56:26;;;;;;;7.27;6.40;;;;;;;2.87;85.56;98489.25;4906410;29;20306;-81
2021/12/06 00:59:01;;;;;;;7.20;6.43;;;;;;;2.96;84.82;98490.69;4913262;23;20234;-82
2021/12/06 01:01:54;;;;;;;8.13;6.27;;;;;;;2.84;85.53;98497.59;4928164;23;20218;-82
2021/12/06 01:05:32;;;;;;;6.90;6.20;;;;;;;2.85;84.68;98501.03;4912558;23;20263;-82
2021/12/06 01:08:39;;;;;;;6.90;6.20;;;;;;;2.84;85.15;98500.25;5009750;23;20219;-82
2021/12/06 01:11:44;;;;;;;5.90;5.30;;;;;;;2.83;85.29;98497.78;4920791;29;20214;-83
2021/12/06 01:14:14;;;;;;;5.90;4.90;;;;;;;2.94;84.75;98494.56;4926136;23;20230;-82
2021/12/06 01:16:47;;;;;;;5.90;4.63;;;;;;;2.74;84.94;98485.75;4919405;29;20231;-82
2021/12/06 01:19:30;;;;;;;5.23;4.43;;;;;;;2.83;85.54;98505.72;4919649;29;20202;-82
2021/12/06 01:22:40;;;;;;;4.50;4.10;;;;;;;2.85;85.15;98508.97;4918975;29;20241;-83
2021/12/06 01:25:24;;;;;;;4.33;4.00;;;;;;;2.84;85.00;98520.59;4918732;29;20246;-83
2021/12/06 01:32:01;;;;;;;4.10;3.73;;;;;;;2.73;85.81;98516.66;4924292;23;20250;-82
2021/12/06 01:40:13;;;;;;;4.20;3.80;;;;;;;2.71;85.78;98515.22;4937576;29;20237;-82
2021/12/06 01:42:50;;;;;;;3.70;3.40;;;;;;;2.76;85.63;98524.19;4930425;23;20230;-82
2021/12/06 01:45:56;;;;;;;3.53;3.23;;;;;;;2.82;85.37;98509.38;4903554;23;20222;-83
2021/12/06 01:49:02;;;;;;;3.43;3.13;;;;;;;2.52;85.20;98490.31;4935510;23;20263;-82
2021/12/06 01:51:58;;;;;;;3.60;3.30;;;;;;;2.65;85.26;98500.97;4922039;23;20576;-82
2021/12/06 01:55:10;;;;;;;3.37;2.80;;;;;;;2.80;84.72;98514.06;4928906;23;20221;-82
2021/12/06 01:57:46;;;;;;;3.10;2.80;;;;;;;2.81;85.25;98515.66;4864062;29;20212;-82
2021/12/06 02:00:42;;;;;;;3.43;3.13;;;;;;;2.74;85.12;98512.19;4883077;29;20226;-82
2021/12/06 02:03:49;;;;;;;3.03;2.83;;;;;;;2.72;85.41;98509.72;4900764;29;20231;-83
2021/12/06 02:06:19;;;;;;;3.40;3.10;;;;;;;2.73;85.50;98506.06;4913075;23;20222;-83
2021/12/06 02:09:01;;;;;;;3.83;2.83;;;;;;;2.55;85.46;98487.28;4929734;23;20175;-82
2021/12/06 02:12:02;;;;;;;2.97;2.67;;;;;;;2.67;85.20;98498.91;4932342;23;20241;-84
2021/12/06 02:14:42;;;;;;;2.70;2.50;;;;;;;2.57;85.29;98478.13;4918351;29;20241;-82
2021/12/06 02:17:27;;;;;;;3.03;2.60;;;;;;;2.85;84.88;98519.53;4917499;29;20230;-82
2021/12/06 02:20:26;;;;;;;2.97;2.70;;;;;;;2.82;84.76;98517.31;4911220;23;20294;-82
2021/12/06 02:22:59;;;;;;;2.77;2.57;;;;;;;2.79;85.13;98521.16;4924670;23;20227;-82
2021/12/06 02:25:33;;;;;;;2.40;2.20;;;;;;;2.76;85.11;98526.84;4917346;29;20214;-83
2021/12/06 02:28:13;;;;;;;2.60;2.40;;;;;;;2.69;85.72;98518.06;4903856;29;20222;-81
2021/12/06 02:31:37;;;;;;;2.93;2.73;;;;;;;2.71;85.44;98521.31;4927257;23;20246;-82
2021/12/06 02:34:26;;;;;;;3.13;2.60;;;;;;;2.74;84.92;98515.66;4920511;29;20220;-82
2021/12/06 02:37:10;;;;;;;2.70;2.50;;;;;;;2.75;84.83;98513.81;4920636;29;20233;-83
2021/12/06 02:39:58;;;;;;;3.87;2.80;;;;;;;2.73;85.45;98526.41;4918360;29;20218;-82
2021/12/06 02:43:13;;;;;;;3.67;3.17;;;;;;;2.73;84.95;98505.25;4932406;23;20302;-82
2021/12/06 02:46:17;;;;;;;3.50;2.83;;;;;;;2.68;85.33;98497.91;4925244;23;20243;-82
2021/12/06 02:48:52;;;;;;;3.77;3.30;;;;;;;2.71;84.92;98492.22;4925599;23;20226;-82
2021/12/06 02:51:27;;;;;;;3.90;3.50;;;;;;;2.86;85.06;98508.78;4898804;29;20231;-83
2021/12/06 02:54:10;;;;;;;4.20;3.80;;;;;;;2.69;84.92;98483.69;4919707;23;20405;-82
2021/12/06 02:57:33;;;;;;;4.87;4.30;;;;;;;2.86;84.84;98511.41;4922017;23;20214;-82
2021/12/06 03:02:00;;;;;;;4.60;4.20;;;;;;;2.84;84.82;98510.81;5120481;27;20614;-84
2021/12/06 03:04:43;;;;;;;5.43;4.60;;;;;;;2.80;85.09;98496.31;5087348;22;20229;-83
2021/12/06 03:08:07;;;;;;;6.47;5.13;;;;;;;2.75;85.28;98511.19;5078288;22;20507;-83
2021/12/06 03:11:42;;;;;;;6.90;5.30;;;;;;;2.75;85.33;98505.88;5092828;28;20248;-82
2021/12/06 03:14:38;;;;;;;6.00;5.10;;;;;;;2.86;85.07;98508.78;5092009;28;20197;-83
2021/12/06 03:17:50;;;;;;;6.30;5.43;;;;;;;2.66;84.92;98503.38;5089311;28;20223;-83
2021/12/06 03:20:26;;;;;;;5.90;5.30;;;;;;;2.76;85.08;98518.06;5072770;28;20224;-83
2021/12/06 03:23:06;;;;;;;7.27;5.70;;;;;;;2.80;85.07;98528.06;5088230;28;20230;-83
2021/12/06 03:25:54;;;;;;;7.17;5.90;;;;;;;2.78;84.71;98516.06;5059787;28;20229;-83
2021/12/06 03:28:41;;;;;;;6.87;5.63;;;;;;;2.83;84.94;98532.16;5078689;22;20217;-83
2021/12/06 03:31:30;;;;;;;9.93;6.77;;;;;;;2.81;85.08;98540.28;5087988;28;20918;-83
2021/12/06 03:34:10;;;;;;;7.47;6.77;;;;;;;2.73;85.65;98537.00;5083549;22;20310;-82
2021/12/06 03:36:52;;;;;;;7.77;6.67;;;;;;;2.62;85.38;98539.19;5078906;22;20220;-82
2021/12/06 03:39:49;;;;;;;8.27;7.03;;;;;;;2.74;85.65;98551.88;5109251;22;20232;-82
2021/12/06 03:42:34;;;;;;;10.40;7.47;;;;;;;2.57;85.72;98538.94;5069522;22;20232;-83
2021/12/06 03:45:20;;;;;;;10.83;7.50;;;;;;;2.65;85.89;98557.31;5054981;28;20282;-82
2021/12/06 03:47:51;;;;;;;10.27;8.50;;;;;;;2.65;86.34;98562.59;5085208;22;20315;-83
2021/12/06 03:50:31;;;;;;;10.90;7.97;;;;;;;2.62;86.20;98559.50;5053705;28;20193;-83
2021/12/06 03:53:03;;;;;;;8.90;7.70;;;;;;;2.63;86.81;98569.91;5083287;28;20244;-83
2021/12/06 03:55:32;;;;;;;13.33;8.10;;;;;;;2.66;85.93;98569.50;5082909;28;20236;-84
2021/12/06 03:58:00;;;;;;;10.13;7.77;;;;;;;2.75;86.47;98574.66;5067706;28;20229;-83
2021/12/06 04:00:27;;;;;;;9.80;8.20;;;;;;;2.72;85.98;98575.03;5060359;22;20251;-83
2021/12/06 04:03:22;;;;;;;8.93;8.03;;;;;;;2.82;85.94;98578.16;5065670;28;20245;-83
2021/12/06 04:06:14;;;;;;;10.53;7.90;;;;;;;2.77;85.75;98584.03;5103630;22;20219;-84
2021/12/06 04:08:50;;;;;;;8.87;7.50;;;;;;;2.76;85.95;98578.91;5078825;22;20368;-83
2021/12/06 04:11:18;;;;;;;10.23;7.80;;;;;;;2.79;86.13;98578.53;5058454;28;20236;-83
2021/12/06 04:13:53;;;;;;;11.43;8.10;;;;;;;2.81;85.81;98581.78;5065870;22;20270;-83
2021/12/06 04:16:46;;;;;;;8.07;6.90;;;;;;;2.85;84.60;98585.69;5096669;22;20212;-82
2021/12/06 04:19:31;;;;;;;8.97;7.47;;;;;;;2.75;85.51;98582.59;5017578;28;20210;-83
2021/12/06 04:22:00;;;;;;;9.37;6.73;;;;;;;2.75;85.20;98579.94;5019630;28;20225;-83
2021/12/06 04:24:34;;;;;;;8.90;7.97;;;;;;;2.73;85.50;98580.13;5035532;28;20201;-84
2021/12/06 04:27:19;;;;;;;10.23;8.03;;;;;;;2.80;85.16;98590.75;5034746;28;20222;-83
2021/12/06 04:29:50;;;;;;;9.27;7.27;;;;;;;2.81;84.92;98601.13;5035463;22;20272;-84
2021/12/06 04:32:36;;;;;;;9.87;8.27;;;;;;;2.67;85.31;98592.31;5016875;23;20223;-83
2021/12/06 04:35:06;;;;;;;10.37;8.07;;;;;;;2.82;85.30;98610.72;5012571;23;20210;-83
2021/12/06 04:38:01;;;;;;;8.77;7.13;;;;;;;2.85;85.02;98610.31;5042189;28;20170;-83
2021/12/06 04:40:31;;;;;;;8.27;7.47;;;;;;;2.85;84.97;98614.78;5056072;28;20214;-83
2021/12/06 04:43:09;;;;;;;9.40;7.40;;;;;;;2.80;84.65;98596.06;5039414;28;20241;-83
2021/12/06 04:45:45;;;;;;;7.67;6.97;;;;;;;2.67;85.41;98594.94;5040455;28;20238;-83
2021/12/06 04:48:25;;;;;;;8.80;7.90;;;;;;;2.83;85.48;98614.16;5025305;28;20213;-83
2021/12/06 04:50:52;;;;;;;8.53;7.57;;;;;;;2.73;85.38;98606.59;5006097;28;20242;-83
2021/12/06 04:53:36;;;;;;;8.60;7.70;;;;;;;2.88;85.05;98623.16;5039603;28;20221;-83
2021/12/06 04:56:19;;;;;;;9.13;7.63;;;;;;;2.96;84.58;98628.28;5023901;28;20222;-84
2021/12/06 04:59:15;;;;;;;8.67;7.20;;;;;;;2.89;85.06;98629.28;5023172;28;20236;-83
2021/12/06 05:02:11;;;;;;;9.67;7.17;;;;;;;2.84;85.25;98623.75;5038459;28;20237;-83
2021/12/06 05:05:27;;;;;;;10.23;8.30;;;;;;;2.83;85.38;98627.41;5034200;28;20230;-83
2021/12/06 05:08:19;;;;;;;8.77;7.13;;;;;;;2.75;85.44;98614.34;5054318;28;20229;-83
2021/12/06 05:10:47;;;;;;;9.23;7.90;;;;;;;2.76;85.18;98608.00;5078850;23;20234;-83
2021/12/06 05:13:41;;;;;;;9.77;8.10;;;;;;;2.81;85.31;98618.81;5059154;28;20212;-83
2021/12/06 05:16:33;;;;;;;8.33;7.47;;;;;;;2.84;85.73;98632.50;5047867;28;20228;-83
2021/12/06 05:19:28;;;;;;;11.33;7.73;;;;;;;2.86;84.76;98629.66;5053995;23;20234;-84
2021/12/06 05:22:07;;;;;;;8.63;7.80;;;;;;;2.87;85.40;98633.94;5039616;28;20218;-83
2021/12/06 05:24:39;;;;;;;10.37;8.30;;;;;;;2.80;84.79;98630.44;5068092;23;20284;-84
2021/12/06 05:27:06;;;;;;;9.53;7.97;;;;;;;2.79;84.79;98623.50;5058528;28;20241;-83
2021/12/06 05:30:03;;;;;;;8.83;7.70;;;;;;;2.87;85.00;98633.94;5066916;23;20209;-84
2021/12/06 05:32:36;;;;;;;10.70;8.80;;;;;;;2.61;84.65;98601.00;5057891;23;20239;-84
2021/12/06 05:35:20;;;;;;;9.97;8.53;;;;;;;2.86;84.77;98641.03;5074090;22;20217;-83
2021/12/06 05:38:05;;;;;;;10.27;7.67;;;;;;;2.83;84.42;98636.16;5041113;28;20240;-84
2021/12/06 05:40:34;;;;;;;9.30;8.27;;;;;;;2.85;83.79;98643.88;5058079;28;20690;-84
2021/12/06 05:43:12;;;;;;;9.47;8.50;;;;;;;2.93;84.11;98643.75;5018978;23;20242;-85
2021/12/06 05:45:41;;;;;;;10.90;8.93;;;;;;;2.92;84.20;98645.56;5052098;23;20218;-83
2021/12/06 05:48:11;;;;;;;10.17;8.47;;;;;;;2.71;84.19;98610.44;5058517;23;20246;-84
2021/12/06 05:54:37;;;;;;;11.27;8.10;;;;;;;2.76;83.68;98648.50;5039132;22;20232;-83
2021/12/06 05:58:01;;;;;;;9.63;7.80;;;;;;;2.71;83.82;98639.53;5237348;23;20221;-83
2021/12/06 06:01:04;;;;;;;13.33;8.57;;;;;;;2.71;84.17;98636.91;5107358;23;20232;-84
2021/12/06 06:04:01;;;;;;;11.67;9.07;;;;;;;2.76;83.88;98645.03;5107941;22;20204;-84
2021/12/06 06:07:21;;;;;;;11.63;8.57;;;;;;;2.75;83.94;98652.19;5078708;28;20227;-84
2021/12/06 06:10:40;;;;;;;9.27;8.27;;;;;;;2.67;83.41;98644.38;5096143;28;20208;-84
2021/12/06 06:13:30;;;;;;;11.43;9.13;;;;;;;2.67;84.04;98662.88;5083714;22;20211;-84
2021/12/06 06:16:25;;;;;;;9.53;8.50;;;;;;;2.56;84.17;98650.22;5046405;23;20291;-84
2021/12/06 06:19:25;;;;;;;12.00;9.50;;;;;;;2.64;84.28;98666.75;5080278;28;20243;-83
2021/12/06 06:22:11;;;;;;;11.53;9.17;;;;;;;2.61;83.67;98672.41;5094426;22;20252;-84
2021/12/06 06:24:44;;;;;;;13.33;9.37;;;;;;;2.64;84.07;98681.81;5081335;28;20239;-84
2021/12/06 06:27:38;;;;;;;11.50;9.87;;;;;;;2.65;84.01;98680.78;5096693;28;20231;-83
2021/12/06 06:30:34;;;;;;;11.33;9.47;;;;;;;2.65;83.74;98686.91;5097657;28;20183;-83
2021/12/06 06:33:44;;;;;;;11.33;9.03;;;;;;;2.59;83.43;98689.47;5052895;23;20230;-84
2021/12/06 06:36:17;;;;;;;12.37;9.80;;;;;;;2.66;83.87;98708.84;5066145;23;20229;-83
2021/12/06 06:38:51;;;;;;;11.57;8.93;;;;;;;2.57;83.72;98687.03;5065676;23;20223;-84
2021/12/06 06:41:24;;;;;;;12.57;9.53;;;;;;;2.66;83.79;98712.31;5066155;28;20196;-84
2021/12/06 06:44:34;;;;;;;13.20;9.23;;;;;;;2.78;82.96;98720.56;5028576;23;20229;-84
2021/12/06 06:47:24;;;;;;;13.20;9.17;;;;;;;2.99;82.73;98723.16;5071583;23;20231;-83
2021/12/06 06:49:54;;;;;;;12.23;9.10;;;;;;;2.91;82.08;98720.66;5080664;28;20259;-83
2021/12/06 06:52:27;;;;;;;10.83;9.10;;;;;;;3.09;81.87;98734.22;5079412;22;20228;-83
2021/12/06 06:54:59;;;;;;;10.40;9.00;;;;;;;3.17;81.07;98738.56;5075541;28;20221;-83
2021/12/06 06:57:51;;;;;;;12.60;8.90;;;;;;;3.21;81.40;98744.28;5099462;22;20220;-83
2021/12/06 07:00:29;;;;;;;10.27;8.60;;;;;;;3.26;80.75;98761.22;5065595;23;20243;-82
2021/12/06 07:03:04;;;;;;;10.73;8.97;;;;;;;3.26;80.47;98763.03;5074565;28;20235;-83
2021/12/06 07:05:31;;;;;;;10.63;9.10;;;;;;;3.20;80.89;98747.94;5095511;22;20216;-84
2021/12/06 07:08:02;;;;;;;9.80;8.17;;;;;;;3.26;80.20;98763.03;5074922;28;20239;-83
2021/12/06 07:10:29;;;;;;;11.23;8.73;;;;;;;3.29;79.66;98755.53;5073282;28;20213;-84
2021/12/06 07:13:03;;;;;;;11.97;9.57;;;;;;;3.45;79.79;98778.25;5079168;22;20234;-83
2021/12/06 07:15:33;;;;;;;10.53;8.70;;;;;;;3.48;79.85;98786.63;5038701;23;20246;-83
2021/12/06 07:18:05;;;;;;;11.00;8.70;;;;;;;3.53;79.30;98789.50;5043954;23;20225;-83
2021/12/06 07:20:32;;;;;;;11.93;8.30;;;;;;;3.60;78.31;98786.03;5066885;23;20235;-83
2021/12/06 07:23:07;;;;;;;12.67;9.13;;;;;;;3.60;78.33;98784.22;5057809;28;20219;-83
2021/12/06 07:25:42;;;;;;;11.33;8.73;;;;;;;3.64;78.07;98795.25;5090577;28;20219;-83
2021/12/06 07:28:11;;;;;;;9.27;8.20;;;;;;;3.62;78.23;98779.56;5091998;28;20250;-83
2021/12/06 07:30:39;;;;;;;10.60;7.80;;;;;;;3.76;77.61;98802.47;5080066;23;20231;-83
2021/12/06 07:33:12;;;;;;;9.60;8.20;;;;;;;3.84;76.92;98804.94;5052558;23;20225;-83
2021/12/06 07:35:44;;;;;;;10.20;8.00;;;;;;;3.91;76.89;98805.81;5034792;28;20236;-82
2021/12/06 07:38:38;;;;;;;8.33;7.53;;;;;;;3.93;76.33;98802.94;5069546;28;20243;-83
2021/12/06 07:41:28;;;;;;;11.27;8.90;;;;;;;3.88;76.91;98790.28;5071298;28;20223;-82
2021/12/06 07:44:20;;;;;;;10.53;8.10;;;;;;;3.91;76.56;98784.59;5103572;22;20258;-82
2021/12/06 07:47:29;;;;;;;9.40;8.37;;;;;;;4.05;75.95;98788.13;5085728;22;20222;-83
2021/12/06 07:50:25;;;;;;;10.13;8.53;;;;;;;4.08;75.91;98784.25;5066637;23;20242;-84
2021/12/06 07:53:24;;;;;;;10.50;8.43;;;;;;;4.10;75.44;98792.81;5077161;22;20240;-83
2021/12/06 07:56:06;;;;;;;10.47;7.60;;;;;;;4.19;75.64;98792.44;5057732;28;20225;-83
2021/12/06 08:01:42;;;;;;;9.30;8.27;;;;;;;4.34;74.33;98795.75;5032821;23;20241;-82
2021/12/06 08:04:28;;;;;;;9.37;8.00;;;;;;;4.26;74.63;98803.06;5051815;28;20229;-83
2021/12/06 08:07:00;;;;;;;9.87;8.20;;;;;;;4.40;74.77;98802.91;5051844;28;20210;-84
2021/12/06 08:09:43;;;;;;;10.70;8.27;;;;;;;4.44;74.36;98817.41;5050969;28;20225;-83
2021/12/06 08:12:12;;;;;;;9.30;8.17;;;;;;;4.50;73.72;98791.09;5080690;22;20217;-83
2021/12/06 08:14:45;;;;;;;8.87;7.50;;;;;;;4.77;73.38;98808.69;5061269;23;20267;-83
2021/12/06 08:17:25;;;;;;;11.07;8.30;;;;;;;4.77;73.05;98801.56;5150107;22;21254;-83
2021/12/06 08:20:03;;;;;;;9.03;7.97;;;;;;;4.86;72.98;98813.59;5091751;28;20231;-83
2021/12/06 08:22:31;;;;;;;9.70;8.27;;;;;;;4.79;73.53;98804.00;5090691;28;20236;-84
2021/12/06 08:25:03;;;;;;;10.43;7.53;;;;;;;5.03;72.19;98798.13;5073052;28;20216;-83
2021/12/06 08:28:03;;;;;;;9.33;7.50;;;;;;;5.10;71.42;98812.19;5073679;28;20236;-83
2021/12/06 08:30:53;;;;;;;9.93;7.60;;;;;;;5.03;71.29;98806.06;5084573;23;20232;-83
2021/12/06 08:33:24;;;;;;;8.40;7.33;;;;;;;4.95;71.06;98786.84;5098561;23;20233;-83
2021/12/06 08:35:55;;;;;;;9.27;7.50;;;;;;;5.10;71.16;98808.72;5080222;23;20575;-83
2021/12/06 08:38:29;;;;;;;10.60;7.60;;;;;;;5.16;70.79;98810.56;5056611;28;20686;-83
2021/12/06 08:40:59;;;;;;;7.93;6.77;;;;;;;5.15;70.77;98815.06;5073830;28;20220;-83
2021/12/06 08:43:28;;;;;;;10.60;7.43;;;;;;;5.13;71.14;98809.13;5087255;28;20240;-83
2021/12/06 08:46:22;;;;;;;8.57;7.00;;;;;;;5.20;69.88;98822.41;5067996;28;20231;-83
2021/12/06 08:48:50;;;;;;;10.27;7.07;;;;;;;4.98;70.42;98802.41;5085674;28;20236;-83
2021/12/06 08:51:47;;;;;;;10.20;6.90;;;;;;;5.25;70.64;98838.53;5086556;28;20282;-83
2021/12/06 08:54:22;;;;;;;8.70;7.07;;;;;;;5.28;71.24;98835.47;5066115;28;20228;-83
2021/12/06 08:57:23;;;;;;;8.67;7.37;;;;;;;5.31;71.18;98835.09;5068603;28;20236;-83
2021/12/06 08:59:52;;;;;;;7.40;6.60;;;;;;;5.10;70.92;98816.69;5086824;28;20323;-84
2021/12/06 09:02:21;;;;;;;10.13;7.07;;;;;;;5.25;70.01;98843.84;5085582;28;20228;-83
2021/12/06 09:05:23;;;;;;;9.43;7.17;;;;;;;5.15;69.80;98854.88;5069961;28;20225;-83
2021/12/06 09:07:57;;;;;;;8.50;7.00;;;;;;;5.10;69.84;98862.63;5075600;28;20217;-83
2021/12/06 09:10:24;;;;;;;9.57;5.87;;;;;;;5.13;68.22;98854.25;5067997;28;20274;-83
2021/12/06 09:12:53;;;;;;;7.43;5.93;;;;;;;5.16;68.84;98861.84;5068301;28;20216;-83
2021/12/06 09:15:29;;;;;;;7.80;6.27;;;;;;;5.14;69.47;98861.22;5050843;28;20260;-83
2021/12/06 09:18:02;;;;;;;8.37;5.90;;;;;;;4.83;69.64;98845.88;5084620;28;20224;-83
2021/12/06 09:20:36;;;;;;;6.93;5.60;;;;;;;4.78;68.55;98843.00;5050235;28;20297;-83
2021/12/06 09:23:08;;;;;;;8.00;5.57;;;;;;;4.73;69.42;98852.56;5067729;28;20292;-82
2021/12/06 09:25:42;;;;;;;9.13;5.40;;;;;;;4.71;69.30;98841.38;5061526;23;20308;-82
2021/12/06 09:28:40;;;;;;;6.20;5.60;;;;;;;4.59;69.88;98849.06;5065286;22;20237;-83
2021/12/06 09:31:19;;;;;;;9.03;6.60;;;;;;;4.59;70.16;98835.00;5070304;28;20209;-83
2021/12/06 09:33:49;;;;;;;7.37;5.47;;;;;;;4.67;70.44;98848.06;5066494;22;20226;-83
2021/12/06 09:36:26;;;;;;;8.23;5.60;;;;;;;4.59;69.61;98817.25;5014295;28;20249;-82
2021/12/06 09:38:54;;;;;;;9.20;5.83;;;;;;;4.66;71.03;98834.00;5054666;23;20229;-83
2021/12/06 09:41:28;;;;;;;8.20;6.03;;;;;;;4.85;71.07;98848.34;5074914;23;20312;-82
2021/12/06 09:44:09;;;;;;;7.80;5.63;;;;;;;4.98;70.35;98848.34;5070641;28;20257;-83
2021/12/06 09:46:39;;;;;;;8.97;6.13;;;;;;;5.08;70.22;98848.78;5087287;28;20286;-82
2021/12/06 09:49:27;;;;;;;7.47;6.10;;;;;;;5.09;69.69;98857.53;5050374;28;20237;-83
2021/12/06 09:51:59;;;;;;;6.40;5.23;;;;;;;5.11;68.79;98845.69;5066899;28;20291;-83
2021/12/06 09:54:33;;;;;;;7.93;5.37;;;;;;;5.13;68.18;98845.50;5093157;23;20578;-82
2021/12/06 09:57:29;;;;;;;8.00;6.17;;;;;;;5.11;68.79;98843.03;5071946;28;20270;-82
2021/12/06 10:00:22;;;;;;;7.67;5.67;;;;;;;5.11;68.34;98842.22;5089214;28;20239;-83
2021/12/06 10:02:52;;;;;;;7.33;5.83;;;;;;;5.24;69.08;98843.03;5108729;28;20651;-82
2021/12/06 10:05:26;;;;;;;8.73;5.60;;;;;;;5.09;68.51;98838.94;5100671;23;20251;-82
2021/12/06 10:07:57;;;;;;;9.33;5.50;;;;;;;5.19;68.26;98834.88;5053845;28;20263;-82
2021/12/06 10:10:27;;;;;;;8.37;5.60;;;;;;;5.24;68.32;98827.09;5087799;28;20234;-83
2021/12/06 10:12:59;;;;;;;7.23;5.73;;;;;;;5.28;68.29;98824.84;5094507;28;20646;-82
2021/12/06 10:15:31;;;;;;;8.97;5.67;;;;;;;5.29;67.51;98829.97;5109830;28;20223;-82
2021/12/06 10:18:10;;;;;;;6.80;5.67;;;;;;;5.39;67.45;98826.06;5107858;28;20228;-82
2021/12/06 10:20:43;;;;;;;8.33;6.30;;;;;;;5.42;68.02;98831.78;5108276;28;20277;-83
2021/12/06 10:23:14;;;;;;;6.43;5.43;;;;;;;5.62;67.25;98826.44;5092329;28;20250;-82
2021/12/06 10:25:49;;;;;;;7.40;5.47;;;;;;;5.83;66.27;98836.84;5108270;28;20220;-82
2021/12/06 10:28:24;;;;;;;10.70;6.20;;;;;;;5.93;66.67;98828.44;5110367;28;20235;-82
2021/12/06 10:30:57;;;;;;;8.60;5.97;;;;;;;6.14;64.67;98834.31;5091518;28;20184;-83
2021/12/06 10:33:46;;;;;;;8.67;5.83;;;;;;;6.36;64.92;98842.00;5095455;23;21111;-83
2021/12/06 10:36:48;;;;;;;8.77;6.40;;;;;;;6.28;64.32;98831.59;5097068;22;20645;-82
2021/12/06 10:39:15;;;;;;;6.90;6.07;;;;;;;6.19;64.71;98825.72;5092384;22;20225;-82
2021/12/06 10:41:58;;;;;;;6.40;5.60;;;;;;;6.20;64.10;98832.69;5071189;28;20312;-82
2021/12/06 10:44:31;;;;;;;8.43;6.77;;;;;;;6.22;64.88;98835.91;5101752;23;20229;-82
2021/12/06 10:47:01;;;;;;;8.53;6.70;;;;;;;6.17;65.45;98827.75;5079533;28;20216;-83
2021/12/06 10:49:44;;;;;;;9.93;6.40;;;;;;;6.25;64.62;98816.09;5073990;23;20264;-83
2021/12/06 10:52:30;;;;;;;7.57;6.30;;;;;;;6.40;63.72;98833.38;5100701;23;20639;-84
2021/12/06 10:55:17;;;;;;;9.87;7.10;;;;;;;6.16;64.48;98829.59;5082181;28;20238;-83
2021/12/06 10:58:27;;;;;;;7.83;6.37;;;;;;;6.07;64.27;98822.88;5112977;22;20259;-83
2021/12/06 11:01:31;;;;;;;7.87;6.20;;;;;;;6.18;64.93;98830.22;5066458;23;20233;-83
2021/12/06 11:04:04;;;;;;;8.50;6.70;;;;;;;6.32;64.28;98828.31;5087734;23;20282;-83
2021/12/06 11:07:05;;;;;;;7.43;6.73;;;;;;;6.35;64.00;98833.19;5098510;28;20317;-83
2021/12/06 11:10:25;;;;;;;8.37;6.60;;;;;;;6.32;64.71;98823.00;5189353;22;20304;-83
2021/12/06 11:16:27;;;;;;;7.97;7.17;;;;;;;6.06;65.46;98807.97;5017054;28;20222;-83
2021/12/06 11:19:38;;;;;;;9.03;6.80;;;;;;;6.16;65.50;98820.78;5054806;22;20220;-83
2021/12/06 11:22:44;;;;;;;9.37;7.60;;;;;;;6.08;66.57;98815.72;5030467;23;20259;-82
2021/12/06 11:25:15;;;;;;;7.87;7.03;;;;;;;5.88;65.21;98807.00;5168215;22;20220;-83
2021/12/06 11:28:28;;;;;;;8.03;6.77;;;;;;;5.95;65.72;98829.88;5106254;22;20225;-84
2021/12/06 11:31:28;;;;;;;8.53;6.27;;;;;;;5.93;65.54;98828.44;5098809;28;20161;-83
2021/12/06 11:34:08;;;;;;;8.27;6.90;;;;;;;5.77;66.46;98827.03;5106748;23;20220;-82
2021/12/06 11:36:42;;;;;;;7.93;7.13;;;;;;;5.68;66.99;98829.13;5126286;22;20302;-82
2021/12/06 11:39:29;;;;;;;10.27;7.33;;;;;;;5.49;67.77;98829.97;5119782;28;20578;-82
2021/12/06 11:42:18;;;;;;;8.20;7.03;;;;;;;5.45;66.93;98826.09;5118577;28;20176;-83
2021/12/06 11:45:16;;;;;;;7.73;6.93;;;;;;;5.47;66.82;98829.34;5121313;22;20660;-82
2021/12/06 11:48:08;;;;;;;9.13;7.00;;;;;;;5.43;67.39;98829.94;5102110;22;20235;-83
2021/12/06 11:51:04;;;;;;;9.17;6.80;;;;;;;5.35;67.35;98824.84;5075586;23;20225;-83
2021/12/06 11:54:05;;;;;;;9.60;7.30;;;;;;;5.24;67.39;98807.69;5050893;22;20229;-82
2021/12/06 11:56:44;;;;;;;10.53;7.13;;;;;;;5.44;67.26;98829.75;5055690;28;20194;-83
2021/12/06 11:59:25;;;;;;;9.50;7.33;;;;;;;5.50;67.21;98828.94;5092783;23;20227;-84
2021/12/06 12:01:55;;;;;;;9.70;7.80;;;;;;;5.51;67.35;98827.88;5081906;23;20217;-82
2021/12/06 12:04:46;;;;;;;7.80;6.73;;;;;;;5.42;67.75;98823.81;5088922;23;20232;-83
2021/12/06 12:07:28;;;;;;;10.33;7.60;;;;;;;5.52;68.01;98826.06;5102869;23;20232;-83
2021/12/06 12:10:29;;;;;;;10.07;7.00;;;;;;;5.57;67.23;98829.72;5061336;23;20234;-82
2021/12/06 12:12:57;;;;;;;11.00;7.10;;;;;;;5.66;67.35;98836.47;5051965;23;20262;-83
2021/12/06 12:15:43;;;;;;;8.17;6.93;;;;;;;5.58;67.02;98835.88;5082169;28;20204;-83
2021/12/06 12:18:29;;;;;;;8.63;7.17;;;;;;;5.67;66.99;98837.28;5111344;22;20201;-82
2021/12/06 12:21:06;;;;;;;9.73;6.80;;;;;;;5.59;66.60;98843.66;5088225;23;20204;-83
2021/12/06 12:24:00;;;;;;;9.80;7.40;;;;;;;5.49;67.06;98831.78;5095782;23;20233;-83
2021/12/06 12:27:04;;;;;;;10.73;7.50;;;;;;;5.49;67.03;98835.28;5112700;22;20259;31
2021/12/06 12:29:47;;;;;;;8.97;7.27;;;;;;;5.48;67.67;98833.63;5065371;22;20223;-82
2021/12/06 12:32:36;;;;;;;9.00;7.43;;;;;;;5.42;67.86;98823.81;5076468;23;20233;-82
2021/12/06 12:36:09;;;;;;;8.53;7.10;;;;;;;5.63;67.07;98833.41;5077552;28;20247;-84
2021/12/06 12:39:09;;;;;;;8.27;7.10;;;;;;;5.56;68.04;98848.53;5057455;28;20240;-83
2021/12/06 12:42:06;;;;;;;9.03;7.30;;;;;;;5.54;67.69;98846.09;5033524;28;20231;-82
2021/12/06 12:44:56;;;;;;;9.17;7.57;;;;;;;5.42;67.38;98826.47;5035852;28;20670;-83
2021/12/06 12:47:43;;;;;;;8.30;7.07;;;;;;;5.63;67.36;98862.63;5031587;28;20211;-83
2021/12/06 12:50:18;;;;;;;8.87;7.37;;;;;;;5.79;66.42;98843.59;5081701;22;20225;-83
2021/12/06 12:53:07;;;;;;;11.43;8.20;;;;;;;5.58;66.50;98838.53;5102589;23;20267;-82
2021/12/06 12:56:24;;;;;;;8.77;7.30;;;;;;;5.66;66.73;98857.72;5091449;23;21320;-83
2021/12/06 12:58:54;;;;;;;9.43;7.30;;;;;;;5.78;66.86;98861.38;5165999;23;20208;-83
2021/12/06 13:01:29;;;;;;;8.07;7.20;;;;;;;5.90;66.09;98847.47;5111311;23;20228;-83
2021/12/06 13:04:21;;;;;;;8.73;7.00;;;;;;;5.86;65.87;98832.94;5087734;22;20256;-83
2021/12/06 13:07:37;;;;;;;10.70;7.60;;;;;;;6.17;65.78;98851.69;5048344;22;20235;-82
2021/12/06 13:10:28;;;;;;;9.53;7.40;;;;;;;6.31;65.99;98860.44;5099345;23;20216;-83
2021/12/06 13:13:44;;;;;;;9.10;6.90;;;;;;;6.36;64.54;98856.13;5104468;22;20225;-83
2021/12/06 13:16:56;;;;;;;8.00;6.17;;;;;;;6.53;63.64;98861.81;5033698;28;20222;-83
2021/12/06 13:23:08;;;;;;;9.13;6.07;;;;;;;6.76;61.29;98880.72;5114221;28;20200;-83
2021/12/06 13:26:10;;;;;;;7.13;6.43;;;;;;;6.70;61.71;98875.41;5096344;28;20196;-82
2021/12/06 13:29:30;;;;;;;9.40;6.10;;;;;;;6.41;62.56;98877.59;5111842;28;20227;-83
2021/12/06 13:32:28;;;;;;;8.70;6.57;;;;;;;6.27;63.39;98876.00;5135358;22;20228;-83